sensor_id;sensor_type;location;lat;lon;timestamp;P1;durP1;ratioP1;P2;durP2;ratioP2
12660;SDS011;39039;51.802;5.710;2022-11-14T00:00:27;16.73;;;9.50;;
12660;SDS011;39039;51.802;5.710;2022-11-14T00:02:58;15.17;;;9.10;;
12660;SDS011;39039;51.802;5.710;2022-11-14T00:05:25;19.60;;;10.43;;
12660;SDS011;39039;51.802;5.710;2022-11-14T00:07:52;14.80;;;9.53;;
12660;SDS011;39039;51.802;5.710;2022-11-14T00:10:20;15.33;;;9.70;;
12660;SDS011;39039;51.802;5.710;2022-11-14T00:12:51;16.67;;;9.20;;
12660;SDS011;39039;51.802;5.710;2022-11-14T00:15:18;19.10;;;9.63;;
12660;SDS011;39039;51.802;5.710;2022-11-14T00:17:45;15.83;;;9.07;;
12660;SDS011;39039;51.802;5.710;2022-11-14T00:20:12;15.47;;;9.33;;
12660;SDS011;39039;51.802;5.710;2022-11-14T00:22:39;15.53;;;9.83;;
12660;SDS011;39039;51.802;5.710;2022-11-14T00:25:07;16.43;;;9.60;;
12660;SDS011;39039;51.802;5.710;2022-11-14T00:27:35;16.63;;;9.87;;
12660;SDS011;39039;51.802;5.710;2022-11-14T00:30:02;19.60;;;10.50;;
12660;SDS011;39039;51.802;5.710;2022-11-14T00:32:30;18.20;;;10.57;;
12660;SDS011;39039;51.802;5.710;2022-11-14T00:34:57;17.80;;;10.87;;
12660;SDS011;39039;51.802;5.710;2022-11-14T00:37:23;15.03;;;9.73;;
12660;SDS011;39039;51.802;5.710;2022-11-14T00:39:51;17.80;;;10.77;;
12660;SDS011;39039;51.802;5.710;2022-11-14T00:42:18;21.03;;;11.50;;
12660;SDS011;39039;51.802;5.710;2022-11-14T00:44:46;22.27;;;11.53;;
12660;SDS011;39039;51.802;5.710;2022-11-14T00:47:13;20.10;;;11.83;;
12660;SDS011;39039;51.802;5.710;2022-11-14T00:49:40;16.97;;;11.57;;
12660;SDS011;39039;51.802;5.710;2022-11-14T00:52:07;20.97;;;11.73;;
12660;SDS011;39039;51.802;5.710;2022-11-14T00:54:34;17.63;;;11.77;;
12660;SDS011;39039;51.802;5.710;2022-11-14T00:57:01;19.77;;;12.07;;
12660;SDS011;39039;51.802;5.710;2022-11-14T00:59:28;21.50;;;12.20;;
12660;SDS011;39039;51.802;5.710;2022-11-14T01:02:00;18.43;;;12.13;;
12660;SDS011;39039;51.802;5.710;2022-11-14T01:04:29;23.60;;;12.10;;
12660;SDS011;39039;51.802;5.710;2022-11-14T01:06:56;23.07;;;12.90;;
12660;SDS011;39039;51.802;5.710;2022-11-14T01:09:23;22.97;;;13.03;;
12660;SDS011;39039;51.802;5.710;2022-11-14T01:11:50;23.73;;;13.10;;
12660;SDS011;39039;51.802;5.710;2022-11-14T01:14:17;22.53;;;13.30;;
12660;SDS011;39039;51.802;5.710;2022-11-14T01:16:47;23.23;;;12.43;;
12660;SDS011;39039;51.802;5.710;2022-11-14T01:19:15;24.67;;;14.17;;
12660;SDS011;39039;51.802;5.710;2022-11-14T01:21:42;23.43;;;13.37;;
12660;SDS011;39039;51.802;5.710;2022-11-14T01:24:11;25.50;;;14.47;;
12660;SDS011;39039;51.802;5.710;2022-11-14T01:26:41;27.97;;;15.00;;
12660;SDS011;39039;51.802;5.710;2022-11-14T01:29:08;23.07;;;14.07;;
12660;SDS011;39039;51.802;5.710;2022-11-14T01:31:35;26.67;;;14.70;;
12660;SDS011;39039;51.802;5.710;2022-11-14T01:34:02;29.80;;;15.70;;
12660;SDS011;39039;51.802;5.710;2022-11-14T01:36:30;27.27;;;15.03;;
12660;SDS011;39039;51.802;5.710;2022-11-14T01:38:57;25.30;;;14.27;;
12660;SDS011;39039;51.802;5.710;2022-11-14T01:41:24;28.37;;;16.43;;
12660;SDS011;39039;51.802;5.710;2022-11-14T01:43:51;29.17;;;16.33;;
12660;SDS011;39039;51.802;5.710;2022-11-14T01:46:20;24.87;;;14.80;;
12660;SDS011;39039;51.802;5.710;2022-11-14T01:48:49;28.33;;;15.40;;
12660;SDS011;39039;51.802;5.710;2022-11-14T01:51:19;31.30;;;16.23;;
12660;SDS011;39039;51.802;5.710;2022-11-14T01:53:50;33.03;;;15.63;;
12660;SDS011;39039;51.802;5.710;2022-11-14T01:56:18;32.30;;;17.00;;
12660;SDS011;39039;51.802;5.710;2022-11-14T01:58:47;29.83;;;15.00;;
12660;SDS011;39039;51.802;5.710;2022-11-14T02:01:15;30.87;;;16.03;;
12660;SDS011;39039;51.802;5.710;2022-11-14T02:03:42;26.57;;;15.37;;
12660;SDS011;39039;51.802;5.710;2022-11-14T02:06:11;34.20;;;16.43;;
12660;SDS011;39039;51.802;5.710;2022-11-14T02:08:39;26.10;;;14.93;;
12660;SDS011;39039;51.802;5.710;2022-11-14T02:11:08;29.07;;;15.30;;
12660;SDS011;39039;51.802;5.710;2022-11-14T02:13:35;30.03;;;15.53;;
12660;SDS011;39039;51.802;5.710;2022-11-14T02:16:05;31.33;;;15.37;;
12660;SDS011;39039;51.802;5.710;2022-11-14T02:18:33;29.37;;;15.03;;
12660;SDS011;39039;51.802;5.710;2022-11-14T02:21:01;32.03;;;15.87;;
12660;SDS011;39039;51.802;5.710;2022-11-14T02:23:29;30.10;;;16.57;;
12660;SDS011;39039;51.802;5.710;2022-11-14T02:25:57;28.80;;;15.70;;
12660;SDS011;39039;51.802;5.710;2022-11-14T02:28:24;32.93;;;16.43;;
12660;SDS011;39039;51.802;5.710;2022-11-14T02:30:51;29.13;;;15.87;;
12660;SDS011;39039;51.802;5.710;2022-11-14T02:33:18;30.47;;;15.20;;
12660;SDS011;39039;51.802;5.710;2022-11-14T02:35:45;30.47;;;16.37;;
12660;SDS011;39039;51.802;5.710;2022-11-14T02:38:16;33.93;;;16.93;;
12660;SDS011;39039;51.802;5.710;2022-11-14T02:40:55;33.10;;;17.27;;
12660;SDS011;39039;51.802;5.710;2022-11-14T02:43:28;31.13;;;16.33;;
12660;SDS011;39039;51.802;5.710;2022-11-14T02:45:55;31.33;;;16.73;;
12660;SDS011;39039;51.802;5.710;2022-11-14T02:48:22;36.43;;;17.83;;
12660;SDS011;39039;51.802;5.710;2022-11-14T02:50:49;35.23;;;16.77;;
12660;SDS011;39039;51.802;5.710;2022-11-14T02:53:20;33.93;;;17.53;;
12660;SDS011;39039;51.802;5.710;2022-11-14T02:55:47;33.87;;;16.53;;
12660;SDS011;39039;51.802;5.710;2022-11-14T02:58:14;30.80;;;16.73;;
12660;SDS011;39039;51.802;5.710;2022-11-14T03:00:41;31.23;;;16.03;;
12660;SDS011;39039;51.802;5.710;2022-11-14T03:03:08;35.87;;;17.97;;
12660;SDS011;39039;51.802;5.710;2022-11-14T03:05:35;35.93;;;17.77;;
12660;SDS011;39039;51.802;5.710;2022-11-14T03:08:03;35.57;;;17.90;;
12660;SDS011;39039;51.802;5.710;2022-11-14T03:10:31;38.87;;;18.23;;
12660;SDS011;39039;51.802;5.710;2022-11-14T03:12:58;38.27;;;19.00;;
12660;SDS011;39039;51.802;5.710;2022-11-14T03:15:25;42.30;;;20.23;;
12660;SDS011;39039;51.802;5.710;2022-11-14T03:17:52;36.97;;;17.93;;
12660;SDS011;39039;51.802;5.710;2022-11-14T03:20:19;41.07;;;19.43;;
12660;SDS011;39039;51.802;5.710;2022-11-14T03:22:46;44.57;;;21.10;;
12660;SDS011;39039;51.802;5.710;2022-11-14T03:25:13;41.83;;;20.50;;
12660;SDS011;39039;51.802;5.710;2022-11-14T03:27:42;44.63;;;21.73;;
12660;SDS011;39039;51.802;5.710;2022-11-14T03:30:09;41.07;;;20.73;;
12660;SDS011;39039;51.802;5.710;2022-11-14T03:32:36;40.93;;;20.03;;
12660;SDS011;39039;51.802;5.710;2022-11-14T03:35:03;42.77;;;19.90;;
12660;SDS011;39039;51.802;5.710;2022-11-14T03:37:31;43.90;;;19.80;;
12660;SDS011;39039;51.802;5.710;2022-11-14T03:39:58;42.17;;;19.93;;
12660;SDS011;39039;51.802;5.710;2022-11-14T03:42:25;44.53;;;20.33;;
12660;SDS011;39039;51.802;5.710;2022-11-14T03:44:53;41.90;;;20.47;;
12660;SDS011;39039;51.802;5.710;2022-11-14T03:47:19;47.90;;;20.60;;
12660;SDS011;39039;51.802;5.710;2022-11-14T03:49:46;46.87;;;20.37;;
12660;SDS011;39039;51.802;5.710;2022-11-14T03:52:25;40.53;;;19.17;;
12660;SDS011;39039;51.802;5.710;2022-11-14T03:54:52;41.03;;;20.97;;
12660;SDS011;39039;51.802;5.710;2022-11-14T03:57:19;46.73;;;20.93;;
12660;SDS011;39039;51.802;5.710;2022-11-14T03:59:46;47.23;;;22.57;;
12660;SDS011;39039;51.802;5.710;2022-11-14T04:02:15;49.43;;;20.53;;
12660;SDS011;39039;51.802;5.710;2022-11-14T04:04:42;47.37;;;21.40;;
12660;SDS011;39039;51.802;5.710;2022-11-14T04:07:09;44.43;;;21.07;;
12660;SDS011;39039;51.802;5.710;2022-11-14T04:09:39;42.07;;;20.00;;
12660;SDS011;39039;51.802;5.710;2022-11-14T04:12:08;42.03;;;21.03;;
12660;SDS011;39039;51.802;5.710;2022-11-14T04:14:35;47.20;;;22.00;;
12660;SDS011;39039;51.802;5.710;2022-11-14T04:17:04;38.33;;;19.40;;
12660;SDS011;39039;51.802;5.710;2022-11-14T04:19:32;45.10;;;20.80;;
12660;SDS011;39039;51.802;5.710;2022-11-14T04:22:01;48.67;;;20.70;;
12660;SDS011;39039;51.802;5.710;2022-11-14T04:24:28;43.17;;;19.40;;
12660;SDS011;39039;51.802;5.710;2022-11-14T04:26:55;43.97;;;19.43;;
12660;SDS011;39039;51.802;5.710;2022-11-14T04:29:22;36.77;;;19.37;;
12660;SDS011;39039;51.802;5.710;2022-11-14T04:31:52;45.37;;;21.07;;
12660;SDS011;39039;51.802;5.710;2022-11-14T04:34:21;46.40;;;21.03;;
12660;SDS011;39039;51.802;5.710;2022-11-14T04:36:52;49.90;;;21.67;;
12660;SDS011;39039;51.802;5.710;2022-11-14T04:39:19;42.30;;;19.97;;
12660;SDS011;39039;51.802;5.710;2022-11-14T04:41:46;44.07;;;19.77;;
12660;SDS011;39039;51.802;5.710;2022-11-14T04:44:13;41.10;;;18.63;;
12660;SDS011;39039;51.802;5.710;2022-11-14T04:46:40;45.47;;;20.77;;
12660;SDS011;39039;51.802;5.710;2022-11-14T04:49:07;45.23;;;20.80;;
12660;SDS011;39039;51.802;5.710;2022-11-14T04:51:37;41.40;;;20.53;;
12660;SDS011;39039;51.802;5.710;2022-11-14T04:54:09;44.40;;;20.63;;
12660;SDS011;39039;51.802;5.710;2022-11-14T04:56:36;40.80;;;20.07;;
12660;SDS011;39039;51.802;5.710;2022-11-14T04:59:03;48.37;;;21.27;;
12660;SDS011;39039;51.802;5.710;2022-11-14T05:01:30;49.30;;;20.67;;
12660;SDS011;39039;51.802;5.710;2022-11-14T05:03:59;44.50;;;21.67;;
12660;SDS011;39039;51.802;5.710;2022-11-14T05:06:26;43.83;;;20.37;;
12660;SDS011;39039;51.802;5.710;2022-11-14T05:08:55;53.60;;;21.70;;
12660;SDS011;39039;51.802;5.710;2022-11-14T05:11:24;45.93;;;20.70;;
12660;SDS011;39039;51.802;5.710;2022-11-14T05:13:51;50.23;;;21.10;;
12660;SDS011;39039;51.802;5.710;2022-11-14T05:16:18;49.03;;;21.30;;
12660;SDS011;39039;51.802;5.710;2022-11-14T05:18:45;40.83;;;20.83;;
12660;SDS011;39039;51.802;5.710;2022-11-14T05:21:19;44.37;;;20.20;;
12660;SDS011;39039;51.802;5.710;2022-11-14T05:23:46;41.90;;;20.27;;
12660;SDS011;39039;51.802;5.710;2022-11-14T05:26:14;42.10;;;19.63;;
12660;SDS011;39039;51.802;5.710;2022-11-14T05:28:43;41.67;;;18.90;;
12660;SDS011;39039;51.802;5.710;2022-11-14T05:31:11;45.47;;;20.23;;
12660;SDS011;39039;51.802;5.710;2022-11-14T05:33:43;46.57;;;20.50;;
12660;SDS011;39039;51.802;5.710;2022-11-14T05:36:11;45.37;;;21.13;;
12660;SDS011;39039;51.802;5.710;2022-11-14T05:38:38;49.80;;;22.40;;
12660;SDS011;39039;51.802;5.710;2022-11-14T05:41:09;44.20;;;19.77;;
12660;SDS011;39039;51.802;5.710;2022-11-14T05:43:39;47.10;;;20.73;;
12660;SDS011;39039;51.802;5.710;2022-11-14T05:46:10;43.23;;;20.13;;
12660;SDS011;39039;51.802;5.710;2022-11-14T05:48:40;42.17;;;20.20;;
12660;SDS011;39039;51.802;5.710;2022-11-14T05:51:08;43.30;;;20.13;;
12660;SDS011;39039;51.802;5.710;2022-11-14T05:53:39;40.63;;;19.20;;
12660;SDS011;39039;51.802;5.710;2022-11-14T05:56:07;50.40;;;20.17;;
12660;SDS011;39039;51.802;5.710;2022-11-14T05:58:36;42.20;;;19.87;;
12660;SDS011;39039;51.802;5.710;2022-11-14T06:01:04;48.47;;;19.93;;
12660;SDS011;39039;51.802;5.710;2022-11-14T06:03:33;42.17;;;19.90;;
12660;SDS011;39039;51.802;5.710;2022-11-14T06:06:01;41.87;;;18.47;;
12660;SDS011;39039;51.802;5.710;2022-11-14T06:08:28;44.27;;;18.97;;
12660;SDS011;39039;51.802;5.710;2022-11-14T06:10:56;45.37;;;19.80;;
12660;SDS011;39039;51.802;5.710;2022-11-14T06:13:27;41.10;;;18.10;;
12660;SDS011;39039;51.802;5.710;2022-11-14T06:15:56;36.70;;;17.50;;
12660;SDS011;39039;51.802;5.710;2022-11-14T06:18:29;43.80;;;18.90;;
12660;SDS011;39039;51.802;5.710;2022-11-14T06:21:00;39.90;;;17.53;;
12660;SDS011;39039;51.802;5.710;2022-11-14T06:23:27;41.97;;;18.80;;
12660;SDS011;39039;51.802;5.710;2022-11-14T06:25:58;39.43;;;18.33;;
12660;SDS011;39039;51.802;5.710;2022-11-14T06:28:25;34.40;;;17.07;;
12660;SDS011;39039;51.802;5.710;2022-11-14T06:30:55;36.83;;;17.20;;
12660;SDS011;39039;51.802;5.710;2022-11-14T06:33:22;39.30;;;17.23;;
12660;SDS011;39039;51.802;5.710;2022-11-14T06:35:49;42.20;;;17.27;;
12660;SDS011;39039;51.802;5.710;2022-11-14T06:38:17;42.77;;;18.83;;
12660;SDS011;39039;51.802;5.710;2022-11-14T06:40:44;40.33;;;18.17;;
12660;SDS011;39039;51.802;5.710;2022-11-14T06:43:17;40.47;;;16.83;;
12660;SDS011;39039;51.802;5.710;2022-11-14T06:45:47;42.40;;;16.93;;
12660;SDS011;39039;51.802;5.710;2022-11-14T06:48:14;43.03;;;17.30;;
12660;SDS011;39039;51.802;5.710;2022-11-14T06:50:41;39.87;;;17.37;;
12660;SDS011;39039;51.802;5.710;2022-11-14T06:53:08;36.80;;;16.97;;
12660;SDS011;39039;51.802;5.710;2022-11-14T06:55:36;35.90;;;16.23;;
12660;SDS011;39039;51.802;5.710;2022-11-14T06:58:03;35.23;;;17.30;;
12660;SDS011;39039;51.802;5.710;2022-11-14T07:00:30;39.80;;;17.13;;
12660;SDS011;39039;51.802;5.710;2022-11-14T07:02:57;36.77;;;16.53;;
12660;SDS011;39039;51.802;5.710;2022-11-14T07:05:24;31.33;;;16.13;;
12660;SDS011;39039;51.802;5.710;2022-11-14T07:07:51;34.90;;;16.80;;
12660;SDS011;39039;51.802;5.710;2022-11-14T07:10:19;40.70;;;16.87;;
12660;SDS011;39039;51.802;5.710;2022-11-14T07:12:47;29.00;;;15.80;;
12660;SDS011;39039;51.802;5.710;2022-11-14T07:15:14;30.77;;;15.77;;
12660;SDS011;39039;51.802;5.710;2022-11-14T07:17:41;30.53;;;15.73;;
12660;SDS011;39039;51.802;5.710;2022-11-14T07:20:08;31.63;;;15.17;;
12660;SDS011;39039;51.802;5.710;2022-11-14T07:22:35;27.33;;;14.83;;
12660;SDS011;39039;51.802;5.710;2022-11-14T07:25:02;34.57;;;15.50;;
12660;SDS011;39039;51.802;5.710;2022-11-14T07:27:30;31.87;;;15.57;;
12660;SDS011;39039;51.802;5.710;2022-11-14T07:29:58;34.17;;;15.60;;
12660;SDS011;39039;51.802;5.710;2022-11-14T07:32:25;31.67;;;15.00;;
12660;SDS011;39039;51.802;5.710;2022-11-14T07:34:52;30.60;;;15.30;;
12660;SDS011;39039;51.802;5.710;2022-11-14T07:37:19;34.77;;;15.43;;
12660;SDS011;39039;51.802;5.710;2022-11-14T07:39:49;35.40;;;16.13;;
12660;SDS011;39039;51.802;5.710;2022-11-14T07:42:16;33.13;;;15.57;;
12660;SDS011;39039;51.802;5.710;2022-11-14T07:44:43;35.17;;;16.13;;
12660;SDS011;39039;51.802;5.710;2022-11-14T07:47:11;31.80;;;15.87;;
12660;SDS011;39039;51.802;5.710;2022-11-14T07:49:38;28.47;;;14.23;;
12660;SDS011;39039;51.802;5.710;2022-11-14T07:52:05;33.97;;;14.77;;
12660;SDS011;39039;51.802;5.710;2022-11-14T07:54:32;30.13;;;14.53;;
12660;SDS011;39039;51.802;5.710;2022-11-14T07:56:59;27.73;;;14.00;;
12660;SDS011;39039;51.802;5.710;2022-11-14T07:59:29;31.07;;;14.47;;
12660;SDS011;39039;51.802;5.710;2022-11-14T08:01:56;26.37;;;13.50;;
12660;SDS011;39039;51.802;5.710;2022-11-14T08:04:24;25.27;;;13.57;;
12660;SDS011;39039;51.802;5.710;2022-11-14T08:06:51;31.20;;;13.90;;
12660;SDS011;39039;51.802;5.710;2022-11-14T08:09:18;24.27;;;12.43;;
12660;SDS011;39039;51.802;5.710;2022-11-14T08:11:47;25.40;;;12.20;;
12660;SDS011;39039;51.802;5.710;2022-11-14T08:14:14;25.27;;;13.37;;
12660;SDS011;39039;51.802;5.710;2022-11-14T08:16:41;20.87;;;11.57;;
12660;SDS011;39039;51.802;5.710;2022-11-14T08:19:08;19.53;;;10.83;;
12660;SDS011;39039;51.802;5.710;2022-11-14T08:21:36;19.83;;;10.57;;
12660;SDS011;39039;51.802;5.710;2022-11-14T08:24:04;18.77;;;10.23;;
12660;SDS011;39039;51.802;5.710;2022-11-14T08:26:31;21.87;;;10.90;;
12660;SDS011;39039;51.802;5.710;2022-11-14T08:28:58;19.17;;;10.30;;
12660;SDS011;39039;51.802;5.710;2022-11-14T08:31:25;18.30;;;10.47;;
12660;SDS011;39039;51.802;5.710;2022-11-14T08:33:52;20.93;;;9.67;;
12660;SDS011;39039;51.802;5.710;2022-11-14T08:36:22;17.57;;;9.50;;
12660;SDS011;39039;51.802;5.710;2022-11-14T08:38:50;18.23;;;9.60;;
12660;SDS011;39039;51.802;5.710;2022-11-14T08:41:17;14.70;;;8.77;;
12660;SDS011;39039;51.802;5.710;2022-11-14T08:43:44;18.23;;;9.27;;
12660;SDS011;39039;51.802;5.710;2022-11-14T08:46:11;15.93;;;9.10;;
12660;SDS011;39039;51.802;5.710;2022-11-14T08:48:38;16.73;;;9.93;;
12660;SDS011;39039;51.802;5.710;2022-11-14T08:51:06;18.67;;;9.07;;
12660;SDS011;39039;51.802;5.710;2022-11-14T08:53:33;17.07;;;9.47;;
12660;SDS011;39039;51.802;5.710;2022-11-14T08:56:01;19.53;;;9.80;;
12660;SDS011;39039;51.802;5.710;2022-11-14T08:58:29;16.07;;;9.80;;
12660;SDS011;39039;51.802;5.710;2022-11-14T09:01:00;17.93;;;10.07;;
12660;SDS011;39039;51.802;5.710;2022-11-14T09:03:27;23.30;;;9.67;;
12660;SDS011;39039;51.802;5.710;2022-11-14T09:05:54;17.10;;;9.10;;
12660;SDS011;39039;51.802;5.710;2022-11-14T09:08:21;16.97;;;9.47;;
12660;SDS011;39039;51.802;5.710;2022-11-14T09:10:48;14.50;;;8.57;;
12660;SDS011;39039;51.802;5.710;2022-11-14T09:13:17;18.97;;;9.67;;
12660;SDS011;39039;51.802;5.710;2022-11-14T09:15:44;16.67;;;9.00;;
12660;SDS011;39039;51.802;5.710;2022-11-14T09:18:11;16.40;;;8.30;;
12660;SDS011;39039;51.802;5.710;2022-11-14T09:20:41;18.83;;;9.87;;
12660;SDS011;39039;51.802;5.710;2022-11-14T09:23:08;18.03;;;9.57;;
12660;SDS011;39039;51.802;5.710;2022-11-14T09:25:35;16.30;;;9.30;;
12660;SDS011;39039;51.802;5.710;2022-11-14T09:28:03;17.07;;;9.63;;
12660;SDS011;39039;51.802;5.710;2022-11-14T09:30:32;17.57;;;9.70;;
12660;SDS011;39039;51.802;5.710;2022-11-14T09:32:59;15.90;;;9.73;;
12660;SDS011;39039;51.802;5.710;2022-11-14T09:35:27;18.70;;;9.20;;
12660;SDS011;39039;51.802;5.710;2022-11-14T09:37:58;14.93;;;9.33;;
12660;SDS011;39039;51.802;5.710;2022-11-14T09:40:25;16.20;;;8.97;;
12660;SDS011;39039;51.802;5.710;2022-11-14T09:43:01;16.07;;;8.83;;
12660;SDS011;39039;51.802;5.710;2022-11-14T09:45:34;16.63;;;9.13;;
12660;SDS011;39039;51.802;5.710;2022-11-14T09:48:03;17.13;;;9.47;;
12660;SDS011;39039;51.802;5.710;2022-11-14T09:50:36;18.47;;;9.87;;
12660;SDS011;39039;51.802;5.710;2022-11-14T09:53:03;15.47;;;8.80;;
12660;SDS011;39039;51.802;5.710;2022-11-14T09:55:32;20.77;;;8.67;;
12660;SDS011;39039;51.802;5.710;2022-11-14T09:58:00;16.03;;;9.80;;
12660;SDS011;39039;51.802;5.710;2022-11-14T10:00:28;17.23;;;9.27;;
12660;SDS011;39039;51.802;5.710;2022-11-14T10:03:02;18.20;;;9.47;;
12660;SDS011;39039;51.802;5.710;2022-11-14T10:05:35;13.50;;;8.33;;
12660;SDS011;39039;51.802;5.710;2022-11-14T10:08:08;17.80;;;8.97;;
12660;SDS011;39039;51.802;5.710;2022-11-14T10:10:49;16.67;;;10.13;;
12660;SDS011;39039;51.802;5.710;2022-11-14T10:13:22;15.67;;;9.03;;
12660;SDS011;39039;51.802;5.710;2022-11-14T10:15:51;19.03;;;9.90;;
12660;SDS011;39039;51.802;5.710;2022-11-14T10:18:27;15.73;;;9.17;;
12660;SDS011;39039;51.802;5.710;2022-11-14T10:20:55;17.37;;;9.57;;
12660;SDS011;39039;51.802;5.710;2022-11-14T10:23:28;17.13;;;9.43;;
12660;SDS011;39039;51.802;5.710;2022-11-14T10:26:00;18.97;;;9.10;;
12660;SDS011;39039;51.802;5.710;2022-11-14T10:28:33;17.33;;;9.43;;
12660;SDS011;39039;51.802;5.710;2022-11-14T10:31:09;17.93;;;10.23;;
12660;SDS011;39039;51.802;5.710;2022-11-14T10:33:45;21.87;;;9.90;;
12660;SDS011;39039;51.802;5.710;2022-11-14T10:36:15;15.03;;;9.07;;
12660;SDS011;39039;51.802;5.710;2022-11-14T10:38:47;16.40;;;9.77;;
12660;SDS011;39039;51.802;5.710;2022-11-14T10:41:15;17.77;;;9.57;;
12660;SDS011;39039;51.802;5.710;2022-11-14T10:43:43;17.80;;;10.13;;
12660;SDS011;39039;51.802;5.710;2022-11-14T10:46:12;18.20;;;10.17;;
12660;SDS011;39039;51.802;5.710;2022-11-14T10:48:44;18.87;;;9.77;;
12660;SDS011;39039;51.802;5.710;2022-11-14T10:51:13;19.97;;;9.80;;
12660;SDS011;39039;51.802;5.710;2022-11-14T10:53:48;18.37;;;10.80;;
12660;SDS011;39039;51.802;5.710;2022-11-14T10:56:16;19.23;;;10.80;;
12660;SDS011;39039;51.802;5.710;2022-11-14T10:58:43;21.63;;;11.57;;
12660;SDS011;39039;51.802;5.710;2022-11-14T11:03:57;22.77;;;11.77;;
12660;SDS011;39039;51.802;5.710;2022-11-14T11:06:36;26.33;;;12.87;;
12660;SDS011;39039;51.802;5.710;2022-11-14T11:09:06;22.33;;;12.20;;
12660;SDS011;39039;51.802;5.710;2022-11-14T11:12:00;25.10;;;12.93;;
12660;SDS011;39039;51.802;5.710;2022-11-14T11:14:27;24.67;;;12.97;;
12660;SDS011;39039;51.802;5.710;2022-11-14T11:17:13;27.03;;;14.93;;
12660;SDS011;39039;51.802;5.710;2022-11-14T11:19:43;27.70;;;15.17;;
12660;SDS011;39039;51.802;5.710;2022-11-14T11:22:26;29.07;;;16.63;;
12660;SDS011;39039;51.802;5.710;2022-11-14T11:24:53;34.93;;;18.77;;
12660;SDS011;39039;51.802;5.710;2022-11-14T11:27:21;32.30;;;18.63;;
12660;SDS011;39039;51.802;5.710;2022-11-14T11:30:00;38.37;;;20.73;;
12660;SDS011;39039;51.802;5.710;2022-11-14T11:32:28;37.17;;;20.83;;
12660;SDS011;39039;51.802;5.710;2022-11-14T11:34:56;36.43;;;20.83;;
12660;SDS011;39039;51.802;5.710;2022-11-14T11:37:26;37.40;;;19.93;;
12660;SDS011;39039;51.802;5.710;2022-11-14T11:39:55;35.73;;;19.57;;
12660;SDS011;39039;51.802;5.710;2022-11-14T11:42:22;31.80;;;17.63;;
12660;SDS011;39039;51.802;5.710;2022-11-14T11:44:56;33.23;;;17.63;;
12660;SDS011;39039;51.802;5.710;2022-11-14T11:47:28;34.73;;;17.03;;
12660;SDS011;39039;51.802;5.710;2022-11-14T11:50:00;32.80;;;16.93;;
12660;SDS011;39039;51.802;5.710;2022-11-14T11:52:30;33.83;;;17.40;;
12660;SDS011;39039;51.802;5.710;2022-11-14T11:54:59;31.97;;;16.97;;
12660;SDS011;39039;51.802;5.710;2022-11-14T11:57:34;32.23;;;16.47;;
12660;SDS011;39039;51.802;5.710;2022-11-14T12:00:04;29.90;;;16.47;;
12660;SDS011;39039;51.802;5.710;2022-11-14T12:02:39;30.33;;;16.77;;
12660;SDS011;39039;51.802;5.710;2022-11-14T12:05:11;32.07;;;16.13;;
12660;SDS011;39039;51.802;5.710;2022-11-14T12:07:42;30.67;;;16.07;;
12660;SDS011;39039;51.802;5.710;2022-11-14T12:10:12;32.13;;;15.40;;
12660;SDS011;39039;51.802;5.710;2022-11-14T12:12:52;30.73;;;15.67;;
12660;SDS011;39039;51.802;5.710;2022-11-14T12:15:22;28.33;;;14.73;;
12660;SDS011;39039;51.802;5.710;2022-11-14T12:17:58;32.70;;;15.23;;
12660;SDS011;39039;51.802;5.710;2022-11-14T12:20:40;31.53;;;15.07;;
12660;SDS011;39039;51.802;5.710;2022-11-14T12:23:22;31.33;;;16.53;;
12660;SDS011;39039;51.802;5.710;2022-11-14T12:26:05;31.53;;;16.13;;
12660;SDS011;39039;51.802;5.710;2022-11-14T12:28:40;30.80;;;15.67;;
12660;SDS011;39039;51.802;5.710;2022-11-14T12:31:23;31.87;;;16.53;;
12660;SDS011;39039;51.802;5.710;2022-11-14T12:33:54;35.53;;;16.43;;
12660;SDS011;39039;51.802;5.710;2022-11-14T12:36:26;37.33;;;16.53;;
12660;SDS011;39039;51.802;5.710;2022-11-14T12:38:54;30.10;;;15.47;;
12660;SDS011;39039;51.802;5.710;2022-11-14T12:41:23;34.03;;;15.00;;
12660;SDS011;39039;51.802;5.710;2022-11-14T12:43:51;30.30;;;14.67;;
12660;SDS011;39039;51.802;5.710;2022-11-14T12:46:18;34.33;;;15.50;;
12660;SDS011;39039;51.802;5.710;2022-11-14T12:48:45;32.13;;;15.17;;
12660;SDS011;39039;51.802;5.710;2022-11-14T12:54:02;30.30;;;14.90;;
12660;SDS011;39039;51.802;5.710;2022-11-14T12:59:16;36.97;;;15.47;;
12660;SDS011;39039;51.802;5.710;2022-11-14T13:01:49;37.13;;;16.87;;
12660;SDS011;39039;51.802;5.710;2022-11-14T13:04:29;34.03;;;16.50;;
12660;SDS011;39039;51.802;5.710;2022-11-14T13:07:02;32.77;;;17.03;;
12660;SDS011;39039;51.802;5.710;2022-11-14T13:09:34;31.73;;;15.43;;
12660;SDS011;39039;51.802;5.710;2022-11-14T13:12:22;34.47;;;16.17;;
12660;SDS011;39039;51.802;5.710;2022-11-14T13:15:18;31.17;;;15.90;;
12660;SDS011;39039;51.802;5.710;2022-11-14T13:18:23;32.37;;;15.30;;
12660;SDS011;39039;51.802;5.710;2022-11-14T13:21:16;31.47;;;15.47;;
12660;SDS011;39039;51.802;5.710;2022-11-14T13:24:01;31.23;;;15.23;;
12660;SDS011;39039;51.802;5.710;2022-11-14T13:26:40;27.73;;;14.70;;
12660;SDS011;39039;51.802;5.710;2022-11-14T13:29:13;31.83;;;14.03;;
12660;SDS011;39039;51.802;5.710;2022-11-14T13:32:00;28.10;;;13.77;;
12660;SDS011;39039;51.802;5.710;2022-11-14T13:34:29;26.63;;;14.60;;
12660;SDS011;39039;51.802;5.710;2022-11-14T13:36:59;28.73;;;14.43;;
12660;SDS011;39039;51.802;5.710;2022-11-14T13:39:30;33.30;;;15.13;;
12660;SDS011;39039;51.802;5.710;2022-11-14T13:42:12;29.27;;;14.50;;
12660;SDS011;39039;51.802;5.710;2022-11-14T13:45:03;30.70;;;14.90;;
12660;SDS011;39039;51.802;5.710;2022-11-14T13:47:41;31.30;;;14.83;;
12660;SDS011;39039;51.802;5.710;2022-11-14T13:50:13;27.93;;;13.83;;
12660;SDS011;39039;51.802;5.710;2022-11-14T13:52:41;28.53;;;13.87;;
12660;SDS011;39039;51.802;5.710;2022-11-14T13:55:17;33.43;;;14.87;;
12660;SDS011;39039;51.802;5.710;2022-11-14T13:57:46;28.80;;;15.27;;
12660;SDS011;39039;51.802;5.710;2022-11-14T14:00:16;31.13;;;14.40;;
12660;SDS011;39039;51.802;5.710;2022-11-14T14:02:56;32.43;;;14.67;;
12660;SDS011;39039;51.802;5.710;2022-11-14T14:05:50;31.37;;;14.47;;
12660;SDS011;39039;51.802;5.710;2022-11-14T14:08:40;33.80;;;15.17;;
12660;SDS011;39039;51.802;5.710;2022-11-14T14:11:22;36.43;;;16.10;;
12660;SDS011;39039;51.802;5.710;2022-11-14T14:13:54;29.33;;;14.67;;
12660;SDS011;39039;51.802;5.710;2022-11-14T14:16:28;31.83;;;14.83;;
12660;SDS011;39039;51.802;5.710;2022-11-14T14:18:58;30.43;;;14.50;;
12660;SDS011;39039;51.802;5.710;2022-11-14T14:21:31;30.20;;;15.20;;
12660;SDS011;39039;51.802;5.710;2022-11-14T14:24:08;29.77;;;15.60;;
12660;SDS011;39039;51.802;5.710;2022-11-14T14:27:05;33.50;;;14.67;;
12660;SDS011;39039;51.802;5.710;2022-11-14T14:29:39;34.10;;;15.63;;
12660;SDS011;39039;51.802;5.710;2022-11-14T14:32:11;29.37;;;15.30;;
12660;SDS011;39039;51.802;5.710;2022-11-14T14:34:38;30.73;;;14.37;;
12660;SDS011;39039;51.802;5.710;2022-11-14T14:37:13;29.80;;;14.50;;
12660;SDS011;39039;51.802;5.710;2022-11-14T14:39:42;31.43;;;14.30;;
12660;SDS011;39039;51.802;5.710;2022-11-14T14:42:20;31.40;;;15.40;;
12660;SDS011;39039;51.802;5.710;2022-11-14T14:44:49;27.67;;;14.87;;
12660;SDS011;39039;51.802;5.710;2022-11-14T14:47:26;29.77;;;15.17;;